Mount Bethel, Pennsylvania
Current Conditions -  °F | °C
As of 10:53 AM on Thursday 30 Oct 2014 (Local Time) from KMPO Reporting Station
Broken Clouds Broken Clouds  
Wind Chill: 38°   Ceiling: 2100
Heat Index: 43°   Visibility: 10mi
Dew Point: 35°   Wind: 9mph
Humidity: 74%   Direction: 320°NW
Pressure: 30"   Gusts: 16mph
Location:  40.9°N, 75.11°W
Report Text: KMPO 301453Z AUTO 32008G14KT 10SM BKN021 BKN026 06/02 A3000 RMK AO2 SLP169 T00610017 50005 $
Loading
Personal Weather Stations






























Interactive Weather Map
Tropical Storm Tracking
New forecast layout! Learn more

10-Day Weather Forecast

Advertisements
Track Severe Weather on mobile